Time;durP1;ratioP1;P1;durP2;ratioP2;P2;SDS_P1;SDS_P2;PMS_P1;PMS_P2;Temp;Humidity;BMP_temperature;BMP_pressure;BME280_temperature;BME280_humidity;BME280_pressure;Samples;Min_cycle;Max_cycle;Signal;HPM_P1;HPM_P2
2021/11/25 00:01:45;;;;;;;27.00;14.38;;;0.60;99.90;;;;;;5015260;28;20039;-74
2021/11/25 00:04:17;;;;;;;28.75;14.82;;;0.70;99.90;;;;;;5037727;28;20129;-75
2021/11/25 00:06:49;;;;;;;26.05;14.90;;;0.60;99.90;;;;;;5055764;28;20068;-71
2021/11/25 00:09:16;;;;;;;25.85;15.57;;;0.60;99.90;;;;;;5055962;28;20484;-72
2021/11/25 00:11:48;;;;;;;28.98;14.73;;;0.60;99.90;;;;;;5035618;28;20437;-71
2021/11/25 00:14:20;;;;;;;32.72;15.45;;;0.60;99.90;;;;;;5051050;28;20037;-73
2021/11/25 00:16:51;;;;;;;29.30;16.17;;;0.60;99.90;;;;;;5051837;28;20128;-73
2021/11/25 00:19:18;;;;;;;25.50;13.90;;;0.60;99.90;;;;;;5051308;28;20064;-72
2021/11/25 00:21:50;;;;;;;28.02;15.25;;;0.60;99.90;;;;;;5051203;28;20140;-74
2021/11/25 00:24:22;;;;;;;27.02;14.77;;;0.60;99.90;;;;;;5034979;28;20144;-73
2021/11/25 00:26:54;;;;;;;26.95;14.20;;;0.50;99.90;;;;;;5051270;28;20403;-73
2021/11/25 00:29:26;;;;;;;24.83;12.85;;;0.40;99.90;;;;;;5051791;28;20072;-73
2021/11/25 00:31:57;;;;;;;25.25;14.18;;;0.40;99.90;;;;;;5051091;28;20136;-73
2021/11/25 00:34:29;;;;;;;30.10;14.65;;;0.30;99.90;;;;;;5050517;28;20131;-71
2021/11/25 00:37:01;;;;;;;30.08;15.65;;;0.40;99.90;;;;;;5052413;28;20121;-73
2021/11/25 00:39:33;;;;;;;26.85;14.98;;;0.40;99.90;;;;;;5051011;28;20037;-74
2021/11/25 00:42:05;;;;;;;29.38;14.48;;;0.40;99.90;;;;;;5035090;28;20033;-73
2021/11/25 00:44:37;;;;;;;31.73;15.93;;;0.40;99.90;;;;;;5050688;28;20040;-73
2021/11/25 00:47:09;;;;;;;30.17;15.52;;;0.50;99.90;;;;;;5050858;28;20147;-72
2021/11/25 00:49:36;;;;;;;29.50;15.93;;;0.50;99.90;;;;;;5050778;28;20143;-74
2021/11/25 00:52:08;;;;;;;27.40;14.10;;;0.60;99.90;;;;;;5051976;28;20120;-73
2021/11/25 00:54:41;;;;;;;27.17;14.00;;;0.60;99.90;;;;;;5050270;28;20037;-73
2021/11/25 00:57:12;;;;;;;26.58;14.50;;;0.60;99.90;;;;;;5050723;28;20037;-73
2021/11/25 00:59:44;;;;;;;24.15;14.20;;;0.50;99.90;;;;;;5034634;28;20055;-73
2021/11/25 01:02:16;;;;;;;24.67;14.18;;;0.50;99.90;;;;;;5051893;28;20565;-73
2021/11/25 01:04:43;;;;;;;26.17;14.32;;;0.50;99.90;;;;;;5050034;28;20045;-72
2021/11/25 01:07:14;;;;;;;26.70;14.55;;;0.60;99.90;;;;;;5050398;28;20136;-73
2021/11/25 01:09:41;;;;;;;27.20;14.68;;;0.60;99.90;;;;;;5050613;28;20080;-73
2021/11/25 01:12:10;;;;;;;28.48;16.65;;;0.50;99.90;;;;;;5050329;28;20057;-73
2021/11/25 01:14:42;;;;;;;;;;;0.50;99.90;;;;;;5050345;28;20040;-73
2021/11/25 01:17:09;;;;;;;27.52;14.32;;;0.50;99.90;;;;;;5033741;28;19952;-73
2021/11/25 01:19:41;;;;;;;28.05;15.05;;;0.50;99.90;;;;;;5050213;28;20097;-73
2021/11/25 01:22:13;;;;;;;27.05;15.32;;;0.50;99.90;;;;;;5051637;28;20132;-73
2021/11/25 01:24:40;;;;;;;26.52;14.45;;;0.60;99.90;;;;;;5050844;28;20076;-73
2021/11/25 01:27:12;;;;;;;28.55;14.73;;;0.50;99.90;;;;;;5051410;28;20406;-73
2021/11/25 01:29:44;;;;;;;27.27;13.82;;;0.40;99.90;;;;;;5051607;28;20552;-73
2021/11/25 01:32:16;;;;;;;24.67;13.15;;;0.30;99.90;;;;;;5049906;28;20579;-73
2021/11/25 01:34:47;;;;;;;25.95;13.45;;;0.20;99.90;;;;;;5049551;28;20047;-72
2021/11/25 01:37:21;;;;;;;25.30;13.55;;;0.10;99.90;;;;;;5034187;28;20041;-73
2021/11/25 01:39:52;;;;;;;25.40;14.52;;;0.00;99.90;;;;;;5051440;28;20128;-73
2021/11/25 01:42:19;;;;;;;30.45;15.57;;;0.00;99.90;;;;;;5049109;28;20444;-73
2021/11/25 01:44:51;;;;;;;32.22;15.10;;;0.00;99.90;;;;;;5049523;28;20574;-73
2021/11/25 01:47:18;;;;;;;26.67;14.20;;;0.00;99.90;;;;;;5049937;28;20040;-71
2021/11/25 01:49:50;;;;;;;25.45;13.50;;;0.10;99.90;;;;;;5049886;28;20047;-73
2021/11/25 01:52:16;;;;;;;29.63;14.73;;;0.10;99.90;;;;;;5049811;28;20467;-73
2021/11/25 01:54:48;;;;;;;30.48;14.93;;;0.20;99.90;;;;;;5050663;28;20098;-73
2021/11/25 01:57:15;;;;;;;25.15;14.50;;;0.20;99.90;;;;;;5051037;28;20064;-73
2021/11/25 01:59:47;;;;;;;26.48;15.18;;;0.20;99.90;;;;;;5049520;28;20041;-71
2021/11/25 02:02:14;;;;;;;27.65;15.63;;;0.20;99.90;;;;;;5048929;28;20139;-73
2021/11/25 02:04:45;;;;;;;26.95;14.48;;;0.30;99.90;;;;;;5033035;28;20123;-73
2021/11/25 02:07:17;;;;;;;26.27;14.73;;;0.30;99.90;;;;;;5049769;28;20567;-72
2021/11/25 02:09:45;;;;;;;27.73;14.82;;;0.40;99.90;;;;;;5033246;28;20087;-73
2021/11/25 02:12:16;;;;;;;27.90;15.23;;;0.30;99.90;;;;;;5049708;28;20128;-73
2021/11/25 02:14:48;;;;;;;27.02;15.07;;;0.30;99.90;;;;;;5048983;28;20587;-73
2021/11/25 02:17:20;;;;;;;28.00;14.27;;;0.20;99.90;;;;;;5049339;28;20060;-72
2021/11/25 02:19:49;;;;;;;29.30;15.30;;;0.20;99.90;;;;;;5050247;28;20068;-73
2021/11/25 02:22:21;;;;;;;28.95;15.18;;;0.10;99.90;;;;;;5033199;28;20049;-73
2021/11/25 02:24:51;;;;;;;30.80;15.23;;;0.10;99.90;;;;;;5048743;28;20072;-73
2021/11/25 02:27:23;;;;;;;26.45;15.10;;;0.10;99.90;;;;;;5048864;28;20140;-72
2021/11/25 02:29:50;;;;;;;28.73;14.88;;;0.00;99.90;;;;;;5049444;28;20152;-73
2021/11/25 02:32:34;;;;;;;28.50;14.95;;;0.00;99.90;;;;;;5049526;28;20068;-73
2021/11/25 02:35:19;;;;;;;29.73;16.48;;;0.00;99.90;;;;;;5049280;28;20503;-73
2021/11/25 02:37:51;;;;;;;;;;;0.00;99.90;;;;;;5050037;28;20051;-73
2021/11/25 02:40:35;;;;;;;31.83;15.60;;;0.00;99.90;;;;;;5050793;28;20011;-73
2021/11/25 02:43:06;;;;;;;28.27;14.45;;;0.00;99.90;;;;;;5049075;28;20230;-71
2021/11/25 02:45:51;;;;;;;31.55;14.93;;;0.10;99.90;;;;;;5049434;28;20084;-74
2021/11/25 02:48:44;;;;;;;30.27;15.30;;;0.10;99.90;;;;;;5033668;28;20072;-73
2021/11/25 02:51:19;;;;;;;31.92;15.88;;;0.10;99.90;;;;;;5033451;28;20139;-71
2021/11/25 02:53:51;;;;;;;33.42;14.98;;;0.10;99.90;;;;;;5051681;28;20169;-73
2021/11/25 02:56:26;;;;;;;27.92;14.02;;;0.10;99.90;;;;;;5052744;28;20399;-73
2021/11/25 02:59:00;;;;;;;29.08;14.73;;;0.10;99.90;;;;;;5053159;28;20114;-73
2021/11/25 03:01:31;;;;;;;29.45;15.05;;;0.10;99.90;;;;;;5052882;28;20474;-72
2021/11/25 03:03:59;;;;;;;31.42;14.60;;;0.20;99.90;;;;;;5053798;28;20065;-73
2021/11/25 03:06:31;;;;;;;30.67;14.60;;;0.20;99.90;;;;;;5054182;28;20127;-73
2021/11/25 03:09:04;;;;;;;28.20;14.30;;;0.20;99.90;;;;;;5052947;28;20098;-73
2021/11/25 03:11:36;;;;;;;28.45;14.48;;;0.10;99.90;;;;;;5052819;28;20049;-73
2021/11/25 03:14:08;;;;;;;31.30;15.52;;;0.20;99.90;;;;;;5052772;28;20463;-74
2021/11/25 03:16:40;;;;;;;32.65;16.05;;;0.20;99.90;;;;;;5053823;28;20051;-72
2021/11/25 03:19:07;;;;;;;30.38;14.63;;;0.20;99.90;;;;;;5052600;28;20396;-74
2021/11/25 03:21:33;;;;;;;27.95;13.90;;;0.20;99.90;;;;;;5036052;28;20159;-73
2021/11/25 03:24:05;;;;;;;29.17;14.18;;;0.30;99.90;;;;;;5036162;28;20713;-73
2021/11/25 03:26:37;;;;;;;30.98;14.48;;;0.30;99.90;;;;;;5052367;28;20115;-73
2021/11/25 03:29:04;;;;;;;28.92;16.08;;;0.20;99.90;;;;;;5052598;28;20069;-73
2021/11/25 03:31:36;;;;;;;29.80;14.55;;;0.30;99.90;;;;;;5036466;28;20091;-73
2021/11/25 03:34:03;;;;;;;30.00;14.77;;;0.30;99.90;;;;;;5035394;28;20073;-73
2021/11/25 03:36:35;;;;;;;26.55;14.88;;;0.30;99.90;;;;;;5052254;28;20102;-73
2021/11/25 03:39:03;;;;;;;28.83;14.45;;;0.20;99.90;;;;;;5051209;28;20115;-73
2021/11/25 03:41:30;;;;;;;28.58;14.00;;;0.30;99.90;;;;;;5053418;28;20121;-72
2021/11/25 03:44:02;;;;;;;28.75;14.13;;;0.30;99.90;;;;;;5051768;28;20033;-73
2021/11/25 03:46:33;;;;;;;27.55;14.07;;;0.40;99.90;;;;;;5051943;28;20079;-71
2021/11/25 03:49:05;;;;;;;23.90;14.15;;;0.40;99.90;;;;;;5053341;28;20102;-73
2021/11/25 03:51:32;;;;;;;25.73;13.75;;;0.40;99.90;;;;;;5051907;28;20073;-74
2021/11/25 03:54:04;;;;;;;30.30;15.48;;;0.40;99.90;;;;;;5051555;28;20486;-74
2021/11/25 03:56:37;;;;;;;27.63;14.90;;;0.30;99.90;;;;;;5051785;28;20120;-73
2021/11/25 03:59:08;;;;;;;24.77;14.47;;;0.30;99.90;;;;;;5035905;28;20147;-71
2021/11/25 04:01:35;;;;;;;28.17;13.15;;;0.20;99.90;;;;;;5051768;28;20132;-72
2021/11/25 04:04:03;;;;;;;25.83;14.63;;;0.20;99.90;;;;;;5050394;28;20424;-73
2021/11/25 04:06:34;;;;;;;24.23;12.95;;;0.20;99.90;;;;;;5051805;28;20148;-73
2021/11/25 04:09:06;;;;;;;26.17;13.38;;;0.10;99.90;;;;;;5051751;28;20422;-73
2021/11/25 04:11:38;;;;;;;24.33;13.00;;;0.10;99.90;;;;;;5035590;28;20041;-73
2021/11/25 04:14:05;;;;;;;27.45;14.18;;;0.00;99.90;;;;;;5034590;28;20106;-73
2021/11/25 04:16:37;;;;;;;27.92;13.50;;;0.00;99.90;;;;;;5051631;28;20136;-73
2021/11/25 04:19:09;;;;;;;23.50;12.93;;;0.00;99.90;;;;;;5035739;28;20047;-73
2021/11/25 04:21:35;;;;;;;21.80;12.25;;;0.00;99.90;;;;;;5051431;28;20061;-73
2021/11/25 04:24:02;;;;;;;25.58;12.43;;;0.00;99.90;;;;;;5052004;28;20116;-73
2021/11/25 04:26:34;;;;;;;23.58;12.95;;;0.00;99.90;;;;;;5051548;28;20132;-72
2021/11/25 04:29:01;;;;;;;22.08;11.70;;;-0.10;99.90;;;;;;5052465;28;20542;-73
2021/11/25 04:37:10;;;;;;;26.30;13.48;;;-0.20;99.90;;;;;;5051134;28;20135;-73
2021/11/25 04:39:38;;;;;;;26.88;14.35;;;-0.30;99.90;;;;;;5034628;28;20041;-71
2021/11/25 04:42:06;;;;;;;27.65;13.93;;;-0.30;99.90;;;;;;5051090;28;20140;-73
2021/11/25 04:44:37;;;;;;;26.88;14.30;;;-0.30;99.90;;;;;;5051734;28;20041;-72
2021/11/25 04:47:10;;;;;;;22.58;12.48;;;-0.40;99.90;;;;;;5051368;28;20430;-73
2021/11/25 04:49:37;;;;;;;28.75;13.88;;;-0.40;99.90;;;;;;5050757;28;20041;-73
2021/11/25 04:52:05;;;;;;;24.40;13.43;;;-0.40;99.90;;;;;;5051507;28;20069;-72
2021/11/25 04:54:37;;;;;;;32.15;15.43;;;-0.30;99.90;;;;;;5034197;28;20049;-73
2021/11/25 04:57:09;;;;;;;27.10;13.65;;;-0.30;99.90;;;;;;5050341;28;20491;-73
2021/11/25 04:59:41;;;;;;;23.73;12.50;;;-0.30;99.90;;;;;;5050245;28;20063;-73
2021/11/25 05:02:14;;;;;;;24.20;12.95;;;-0.30;99.90;;;;;;5050427;28;20342;-73
2021/11/25 05:04:41;;;;;;;26.30;13.18;;;-0.30;99.90;;;;;;5048345;28;20068;-74
2021/11/25 05:07:08;;;;;;;26.77;13.88;;;-0.20;99.90;;;;;;5032411;28;20128;-72
2021/11/25 05:09:39;;;;;;;25.88;12.77;;;-0.20;99.90;;;;;;5051096;28;20163;-75
2021/11/25 05:12:11;;;;;;;26.27;13.13;;;-0.20;99.90;;;;;;5033910;28;20131;-77
2021/11/25 05:14:43;;;;;;;24.15;12.77;;;-0.20;99.90;;;;;;5050783;28;20123;-73
2021/11/25 05:17:10;;;;;;;27.15;13.63;;;-0.20;99.90;;;;;;5051701;28;20120;-73
2021/11/25 05:19:42;;;;;;;27.33;13.00;;;-0.30;99.90;;;;;;5061982;28;20065;-73
2021/11/25 05:22:14;;;;;;;22.67;12.75;;;-0.30;99.90;;;;;;5045865;28;20039;-72
2021/11/25 05:24:46;;;;;;;29.17;14.00;;;-0.30;99.90;;;;;;5041950;28;20075;-73
2021/11/25 05:27:18;;;;;;;23.42;12.65;;;-0.30;99.90;;;;;;5037884;28;20542;-73
2021/11/25 05:29:50;;;;;;;22.13;12.90;;;-0.30;99.90;;;;;;5037978;28;20144;-73
2021/11/25 05:32:22;;;;;;;22.60;11.50;;;-0.30;99.90;;;;;;5039190;28;20120;-73
2021/11/25 05:34:49;;;;;;;21.60;11.70;;;-0.40;99.90;;;;;;5028585;28;20564;-74
2021/11/25 05:37:21;;;;;;;22.98;12.13;;;-0.40;99.90;;;;;;5048735;28;20136;-73
2021/11/25 05:39:52;;;;;;;22.25;12.55;;;-0.40;99.90;;;;;;5042088;28;20041;-73
2021/11/25 05:42:25;;;;;;;22.17;13.07;;;-0.40;99.90;;;;;;5048110;28;20060;-72
2021/11/25 05:44:57;;;;;;;23.67;13.07;;;-0.40;99.90;;;;;;5050977;28;20045;-73
2021/11/25 05:47:34;;;;;;;22.88;10.80;;;-0.40;99.90;;;;;;5046632;28;20127;-73
2021/11/25 05:50:04;;;;;;;21.05;11.80;;;-0.40;99.90;;;;;;5045980;28;20068;-72
2021/11/25 05:52:36;;;;;;;21.58;11.52;;;-0.40;99.90;;;;;;5047732;28;20136;-73
2021/11/25 05:55:08;;;;;;;22.42;11.63;;;-0.30;99.90;;;;;;5024980;28;20136;-74
2021/11/25 05:57:40;;;;;;;21.88;11.65;;;-0.30;99.90;;;;;;5049475;28;20498;-73
2021/11/25 06:00:14;;;;;;;22.73;12.57;;;-0.30;99.90;;;;;;5050619;28;20051;-74
2021/11/25 06:02:47;;;;;;;21.08;10.82;;;-0.40;99.90;;;;;;5042593;28;20128;-73
2021/11/25 06:05:16;;;;;;;21.95;12.20;;;-0.50;99.90;;;;;;5045472;28;20124;-73
2021/11/25 06:07:48;;;;;;;24.17;12.43;;;-0.50;99.90;;;;;;5041170;28;20043;-72
2021/11/25 06:10:17;;;;;;;21.33;11.30;;;-0.50;99.90;;;;;;5046697;28;20051;-74
2021/11/25 06:12:45;;;;;;;21.73;11.15;;;-0.40;99.90;;;;;;5045346;28;20079;-73
2021/11/25 06:15:17;;;;;;;19.98;11.68;;;-0.30;99.90;;;;;;5048203;28;20136;-73
2021/11/25 06:17:44;;;;;;;22.05;11.40;;;-0.30;99.90;;;;;;5048893;28;20049;-73
2021/11/25 06:20:12;;;;;;;23.60;11.93;;;-0.30;99.90;;;;;;5045042;28;20537;-73
2021/11/25 06:22:46;;;;;;;22.15;11.38;;;-0.30;99.90;;;;;;5038952;28;20121;-73
2021/11/25 06:25:20;;;;;;;20.92;11.25;;;-0.30;99.90;;;;;;5049743;28;20037;-73
2021/11/25 06:27:52;;;;;;;21.75;11.20;;;-0.40;99.90;;;;;;5050088;28;20047;-73
2021/11/25 06:30:24;;;;;;;20.60;11.27;;;-0.40;99.90;;;;;;5036945;28;20137;-73
2021/11/25 06:32:56;;;;;;;22.05;11.07;;;-0.40;99.90;;;;;;5054035;28;20047;-73
2021/11/25 06:35:28;;;;;;;23.83;10.82;;;-0.30;99.90;;;;;;5053889;28;20789;-73
2021/11/25 06:38:00;;;;;;;21.75;11.93;;;-0.30;99.90;;;;;;5053444;28;20087;-72
2021/11/25 06:40:30;;;;;;;22.65;11.68;;;-0.30;99.90;;;;;;5033691;28;20136;-73
2021/11/25 06:42:59;;;;;;;25.08;15.25;;;-0.20;99.90;;;;;;5053035;28;20153;-73
2021/11/25 06:45:26;;;;;;;24.33;13.00;;;-0.20;99.90;;;;;;5049996;28;20120;-73
2021/11/25 06:48:00;;;;;;;22.83;12.43;;;-0.20;99.90;;;;;;5037140;28;20047;-73
2021/11/25 06:50:27;;;;;;;20.60;11.25;;;-0.30;99.90;;;;;;5052132;28;20048;-73
2021/11/25 06:52:59;;;;;;;23.65;11.50;;;-0.40;99.90;;;;;;5052043;28;20116;-73
2021/11/25 06:55:31;;;;;;;24.85;11.98;;;-0.50;99.90;;;;;;5049072;28;20459;-73
2021/11/25 06:58:04;;;;;;;24.05;12.45;;;-0.50;99.90;;;;;;5052644;28;20043;-72
2021/11/25 07:00:31;;;;;;;24.30;12.48;;;-0.50;99.90;;;;;;5049285;28;20167;-72
2021/11/25 07:02:58;;;;;;;21.92;12.07;;;-0.60;99.90;;;;;;5052649;28;20075;-72
2021/11/25 07:05:30;;;;;;;24.35;12.40;;;-0.60;99.90;;;;;;5053788;28;20124;-73
2021/11/25 07:08:03;;;;;;;23.65;12.88;;;-0.60;99.90;;;;;;5051865;28;20051;-72
2021/11/25 07:10:35;;;;;;;28.48;13.32;;;-0.60;99.90;;;;;;5053754;28;20075;-72
2021/11/25 07:13:02;;;;;;;25.77;11.45;;;-0.50;99.90;;;;;;5035945;28;20084;-73
2021/11/25 07:15:33;;;;;;;25.92;13.18;;;-0.50;99.90;;;;;;5023632;28;20136;-72
2021/11/25 07:18:05;;;;;;;26.50;12.57;;;-0.50;99.90;;;;;;5051730;28;20123;-73
2021/11/25 07:20:32;;;;;;;23.35;12.27;;;-0.50;99.90;;;;;;5052784;28;20115;-73
2021/11/25 07:23:04;;;;;;;23.92;12.80;;;-0.30;99.90;;;;;;5031260;28;20127;-73
2021/11/25 07:25:35;;;;;;;22.10;11.25;;;-0.10;99.90;;;;;;5047256;28;20124;-73
2021/11/25 07:28:03;;;;;;;21.08;11.23;;;-0.20;99.90;;;;;;5032717;28;20131;-73
2021/11/25 07:30:35;;;;;;;20.42;11.27;;;-0.20;99.90;;;;;;5040630;28;20137;-73
2021/11/25 07:33:06;;;;;;;22.95;11.07;;;-0.30;99.90;;;;;;5034279;28;20120;-73
2021/11/25 07:35:33;;;;;;;19.42;10.52;;;-0.20;99.90;;;;;;5039572;28;20072;-73
2021/11/25 07:38:02;;;;;;;20.55;11.45;;;-0.20;99.90;;;;;;5024304;28;20132;-72
2021/11/25 07:40:29;;;;;;;22.20;11.90;;;-0.20;99.90;;;;;;5050008;28;20140;-73
2021/11/25 07:43:02;;;;;;;21.25;11.50;;;-0.20;99.90;;;;;;5037755;28;20403;-72
2021/11/25 07:45:31;;;;;;;24.40;12.20;;;-0.10;99.90;;;;;;5051833;28;20041;-73
2021/11/25 07:48:04;;;;;;;21.85;10.82;;;-0.10;99.90;;;;;;5050246;28;20402;-73
2021/11/25 07:50:31;;;;;;;21.20;11.75;;;-0.10;99.90;;;;;;5044789;28;20053;-73
2021/11/25 07:52:58;;;;;;;22.02;13.15;;;-0.10;99.90;;;;;;5044190;28;20076;-73
2021/11/25 07:55:30;;;;;;;24.45;13.30;;;-0.10;99.90;;;;;;5052050;28;20051;-73
2021/11/25 07:57:58;;;;;;;21.13;11.25;;;-0.10;99.90;;;;;;5053483;28;20038;-73
2021/11/25 08:00:28;;;;;;;23.75;13.98;;;-0.10;99.90;;;;;;5051150;28;20084;-73
2021/11/25 08:03:00;;;;;;;30.45;15.50;;;-0.10;99.90;;;;;;5051751;28;20037;-73
2021/11/25 08:05:32;;;;;;;33.85;17.63;;;-0.10;99.90;;;;;;5053118;28;20119;-73
2021/11/25 08:08:05;;;;;;;30.30;14.15;;;-0.20;99.90;;;;;;5051841;28;20135;-73
2021/11/25 08:10:37;;;;;;;25.25;12.15;;;-0.10;99.90;;;;;;5044511;28;20116;-73
2021/11/25 08:13:04;;;;;;;32.50;16.63;;;-0.20;99.90;;;;;;5048080;28;20044;-72
2021/11/25 08:15:36;;;;;;;35.80;17.70;;;-0.20;99.90;;;;;;5027285;28;20052;-73
2021/11/25 08:18:03;;;;;;;24.02;12.57;;;-0.20;99.90;;;;;;5051063;28;20570;-73
2021/11/25 08:20:31;;;;;;;23.05;12.55;;;-0.20;99.90;;;;;;5051152;28;20048;-73
2021/11/25 08:23:05;;;;;;;24.48;13.77;;;-0.20;99.90;;;;;;5051323;28;20128;-72
2021/11/25 08:25:32;;;;;;;24.85;13.52;;;-0.10;99.90;;;;;;5052504;28;20051;-73
2021/11/25 08:28:03;;;;;;;23.27;11.80;;;-0.10;99.90;;;;;;5051291;28;20135;-73
2021/11/25 08:30:31;;;;;;;24.17;12.75;;;-0.20;99.90;;;;;;5050810;28;20518;-73
2021/11/25 08:33:03;;;;;;;18.45;9.65;;;-0.10;99.90;;;;;;5041528;28;20131;-73
2021/11/25 08:35:30;;;;;;;23.77;13.30;;;-0.10;99.90;;;;;;5054920;28;20124;-73
2021/11/25 08:38:00;;;;;;;24.10;12.60;;;-0.10;99.90;;;;;;5051615;28;20037;-73
2021/11/25 08:40:33;;;;;;;25.92;12.32;;;-0.10;99.90;;;;;;5050897;28;20059;-73
2021/11/25 08:42:59;;;;;;;24.05;11.02;;;0.00;99.90;;;;;;5034400;28;20087;-74
2021/11/25 08:45:33;;;;;;;23.40;11.40;;;0.10;99.90;;;;;;5050569;28;20515;-73
2021/11/25 08:48:04;;;;;;;24.75;11.77;;;0.10;99.90;;;;;;5050929;28;20095;-73
2021/11/25 08:50:31;;;;;;;23.10;12.18;;;0.10;99.90;;;;;;5050421;28;20052;-72
2021/11/25 08:53:00;;;;;;;24.58;12.15;;;0.10;99.90;;;;;;5050377;28;20048;-74
2021/11/25 08:55:34;;;;;;;24.13;12.15;;;0.10;99.90;;;;;;5051739;28;20555;-73
2021/11/25 08:58:09;;;;;;;22.33;11.98;;;0.10;99.90;;;;;;5051964;28;20124;-72
2021/11/25 09:00:41;;;;;;;23.08;10.93;;;0.10;99.90;;;;;;5050868;28;20567;-72
2021/11/25 09:03:13;;;;;;;23.08;12.88;;;0.10;99.90;;;;;;5029436;28;20047;-73
2021/11/25 09:05:45;;;;;;;24.40;12.32;;;0.10;99.90;;;;;;5023773;28;20159;-74
2021/11/25 09:08:16;;;;;;;21.00;11.45;;;0.10;99.90;;;;;;5034628;28;20069;-73
2021/11/25 09:10:49;;;;;;;17.20;9.63;;;0.30;99.90;;;;;;5031902;28;20128;-71
2021/11/25 09:13:23;;;;;;;20.88;11.23;;;0.50;99.90;;;;;;5007682;28;20088;-73
2021/11/25 09:15:50;;;;;;;18.88;10.00;;;0.50;99.90;;;;;;5035798;28;20675;-73
2021/11/25 09:18:16;;;;;;;21.30;11.48;;;0.40;99.90;;;;;;5037526;28;20084;-73
2021/11/25 09:20:48;;;;;;;23.90;11.48;;;0.40;99.90;;;;;;5034436;28;20044;-74
2021/11/25 09:23:20;;;;;;;25.15;13.35;;;0.40;99.90;;;;;;5024149;28;20070;-71
2021/11/25 09:25:53;;;;;;;21.55;12.00;;;0.40;99.90;;;;;;5037297;28;20132;-71
2021/11/25 09:28:23;;;;;;;26.60;12.80;;;0.30;99.90;;;;;;5026473;28;20147;-72
2021/11/25 09:30:51;;;;;;;24.95;11.30;;;0.30;99.90;;;;;;5032910;28;20187;-73
2021/11/25 09:33:19;;;;;;;27.33;12.25;;;0.20;99.90;;;;;;5033464;28;20128;-74
2021/11/25 09:35:46;;;;;;;25.02;12.30;;;0.20;99.90;;;;;;5034203;28;20102;-73
2021/11/25 09:38:20;;;;;;;23.58;11.68;;;0.20;99.90;;;;;;5020793;28;20051;-74
2021/11/25 09:40:49;;;;;;;27.75;13.05;;;0.20;99.90;;;;;;5039061;28;20143;-74
2021/11/25 09:43:22;;;;;;;21.55;12.20;;;0.20;99.90;;;;;;5028500;28;20124;-73
2021/11/25 09:45:54;;;;;;;23.67;11.60;;;0.20;99.90;;;;;;5033910;28;20156;-72
2021/11/25 09:48:27;;;;;;;22.45;11.70;;;0.20;99.90;;;;;;5035539;28;20128;-72
2021/11/25 09:50:59;;;;;;;22.50;11.02;;;0.20;99.90;;;;;;5028435;28;20092;-74
2021/11/25 09:53:32;;;;;;;21.73;11.00;;;0.20;99.90;;;;;;5020321;28;20045;-72
2021/11/25 09:56:06;;;;;;;15.90;8.32;;;0.10;99.90;;;;;;5031088;28;20555;-74
2021/11/25 09:58:38;;;;;;;20.70;10.77;;;0.10;99.90;;;;;;5033399;28;20037;-73
2021/11/25 10:01:08;;;;;;;18.38;10.60;;;0.10;99.90;;;;;;5036941;28;20036;-72
2021/11/25 10:03:44;;;;;;;18.75;9.75;;;0.10;99.90;;;;;;5032797;28;20135;-73
2021/11/25 10:06:19;;;;;;;19.73;10.50;;;0.20;99.90;;;;;;5033170;28;20037;-73
2021/11/25 10:08:52;;;;;;;19.15;11.18;;;0.20;99.90;;;;;;5050558;28;20140;-73
2021/11/25 10:11:37;;;;;;;22.88;11.20;;;0.20;99.90;;;;;;5039434;28;20267;-73
2021/11/25 10:14:08;;;;;;;37.17;19.58;;;0.30;99.90;;;;;;5039111;28;20072;-72
2021/11/25 10:16:46;;;;;;;19.17;10.25;;;0.20;99.90;;;;;;5041112;28;20431;-71
2021/11/25 10:19:29;;;;;;;18.75;10.60;;;0.20;99.90;;;;;;5023319;28;20312;-73
2021/11/25 10:22:10;;;;;;;24.25;11.32;;;0.20;99.90;;;;;;5034133;28;20678;-73
2021/11/25 10:24:42;;;;;;;30.27;14.90;;;0.20;99.90;;;;;;5053692;28;20576;-74
2021/11/25 10:27:25;;;;;;;26.58;13.48;;;0.30;99.90;;;;;;5044201;28;20037;-73
2021/11/25 10:30:13;;;;;;;21.88;10.90;;;0.30;99.90;;;;;;5043799;28;20099;-73
2021/11/25 10:32:40;;;;;;;26.10;13.15;;;0.30;99.90;;;;;;5034805;28;20120;-74
2021/11/25 10:35:31;;;;;;;28.00;14.95;;;0.20;99.90;;;;;;5036461;28;20542;-73
2021/11/25 10:40:34;;;;;;;55.28;27.88;;;0.30;99.90;;;;;;5037401;28;20053;-73
2021/11/25 10:43:19;;;;;;;25.42;13.93;;;0.30;99.90;;;;;;5042479;28;20034;-72
2021/11/25 10:45:48;;;;;;;23.08;11.90;;;0.30;99.90;;;;;;5021175;28;20104;-73
2021/11/25 10:48:35;;;;;;;23.08;13.43;;;0.30;99.90;;;;;;5039603;28;20038;-72
2021/11/25 10:51:31;;;;;;;22.15;11.98;;;0.30;99.90;;;;;;5044188;28;20456;-73
2021/11/25 10:54:09;;;;;;;25.92;13.68;;;0.40;99.90;;;;;;5032154;28;20677;-72
2021/11/25 10:56:53;;;;;;;25.33;13.30;;;0.40;99.90;;;;;;5035148;28;20083;-73
2021/11/25 10:59:39;;;;;;;26.77;13.23;;;0.40;99.90;;;;;;5038114;28;20087;-74
2021/11/25 11:02:20;;;;;;;61.60;32.75;;;0.30;99.90;;;;;;5021668;28;20644;-73
2021/11/25 11:04:51;;;;;;;50.92;22.13;;;0.40;99.90;;;;;;5027973;28;20125;-73
2021/11/25 11:07:35;;;;;;;33.13;15.10;;;0.30;99.90;;;;;;5033114;28;20499;-74
2021/11/25 11:10:28;;;;;;;24.20;12.55;;;0.30;99.90;;;;;;5033444;28;20071;-73
2021/11/25 11:15:59;;;;;;;24.25;11.80;;;0.30;99.90;;;;;;5041407;28;20088;-73
2021/11/25 11:18:53;;;;;;;25.50;13.38;;;0.30;99.90;;;;;;5035770;28;20041;-74
2021/11/25 11:21:43;;;;;;;23.75;13.13;;;0.30;99.90;;;;;;5042759;28;20132;-73
2021/11/25 11:24:23;;;;;;;25.10;13.60;;;0.30;99.90;;;;;;5042860;28;20091;-74
2021/11/25 11:26:57;;;;;;;24.75;13.77;;;0.30;99.90;;;;;;5039857;28;20103;-73
2021/11/25 11:29:31;;;;;;;40.72;24.63;;;0.30;99.90;;;;;;5041096;28;20103;-73
2021/11/25 11:32:06;;;;;;;24.92;13.20;;;0.30;99.90;;;;;;5034216;28;20037;-73
2021/11/25 11:34:38;;;;;;;26.92;13.20;;;0.30;99.90;;;;;;5022440;28;20072;-73
2021/11/25 11:37:05;;;;;;;23.00;11.18;;;0.20;99.90;;;;;;5050163;28;20040;-74
2021/11/25 11:39:38;;;;;;;22.75;11.85;;;0.20;99.90;;;;;;5051702;28;20128;-74
2021/11/25 11:42:07;;;;;;;38.97;17.13;;;0.10;99.90;;;;;;5047700;28;20094;-73
2021/11/25 11:44:34;;;;;;;41.00;17.83;;;0.10;99.90;;;;;;5047902;28;20079;-73
2021/11/25 11:47:07;;;;;;;26.05;13.52;;;0.10;99.90;;;;;;5051403;28;20139;-73
2021/11/25 11:49:36;;;;;;;24.25;11.73;;;0.20;99.90;;;;;;5043949;28;20099;-74
2021/11/25 11:52:12;;;;;;;23.33;11.77;;;0.20;99.90;;;;;;5046778;28;20052;-73
2021/11/25 11:54:44;;;;;;;23.20;11.13;;;0.30;99.90;;;;;;5043349;28;21437;-76
2021/11/25 11:57:32;;;;;;;24.08;10.65;;;0.30;99.90;;;;;;5043730;28;20128;-73
2021/11/25 12:00:07;;;;;;;22.35;12.05;;;0.30;99.90;;;;;;5033910;28;20339;-73
2021/11/25 12:02:57;;;;;;;24.90;12.68;;;0.30;99.90;;;;;;5050631;28;20131;-73
2021/11/25 12:05:42;;;;;;;27.38;13.23;;;0.30;99.90;;;;;;5034369;28;20049;-73
2021/11/25 12:08:31;;;;;;;25.65;12.77;;;0.40;99.90;;;;;;5023612;28;20099;-73
2021/11/25 12:10:58;;;;;;;22.13;10.88;;;0.50;99.90;;;;;;5025623;28;20046;-73
2021/11/25 12:13:50;;;;;;;27.50;13.23;;;0.40;99.90;;;;;;5016070;28;20395;-73
2021/11/25 12:16:17;;;;;;;27.05;14.07;;;0.40;99.90;;;;;;5045822;28;20068;-73
2021/11/25 12:18:55;;;;;;;29.25;15.07;;;0.30;99.90;;;;;;5021489;28;20125;-72
2021/11/25 12:21:47;;;;;;;28.42;14.77;;;0.40;99.90;;;;;;5038774;28;20108;-72
2021/11/25 12:24:28;;;;;;;28.38;14.68;;;0.50;99.90;;;;;;5043657;28;20136;-73
2021/11/25 12:32:47;;;;;;;24.67;13.52;;;0.50;99.90;;;;;;5039868;28;20508;-72
2021/11/25 12:35:36;;;;;;;22.67;11.73;;;0.50;99.90;;;;;;5038895;28;20120;-71
2021/11/25 12:38:16;;;;;;;24.83;12.85;;;0.50;99.90;;;;;;5034623;28;20038;-73
2021/11/25 12:40:51;;;;;;;29.42;12.95;;;0.50;99.90;;;;;;5049507;28;20160;-72
2021/11/25 12:43:29;;;;;;;34.13;17.48;;;0.60;99.90;;;;;;5048080;28;20045;-72
2021/11/25 12:46:08;;;;;;;31.45;14.75;;;0.50;99.90;;;;;;5047477;28;20033;-72
2021/11/25 12:48:45;;;;;;;28.95;14.57;;;0.40;99.90;;;;;;5047772;28;20044;-72
2021/11/25 12:51:20;;;;;;;24.08;12.73;;;0.40;99.90;;;;;;5047949;28;20068;-72
2021/11/25 12:53:58;;;;;;;26.77;13.00;;;0.40;99.90;;;;;;5034138;28;20505;-73
2021/11/25 12:56:31;;;;;;;25.00;12.63;;;0.40;99.90;;;;;;5040304;28;20121;-72
2021/11/25 12:59:13;;;;;;;27.00;13.25;;;0.40;99.90;;;;;;5048811;28;20468;-72
2021/11/25 13:01:48;;;;;;;25.95;12.95;;;0.40;99.90;;;;;;5049434;28;20051;-72
2021/11/25 13:04:26;;;;;;;31.23;14.13;;;0.50;99.90;;;;;;5049180;28;20033;-72
2021/11/25 13:06:56;;;;;;;28.80;13.32;;;0.40;99.90;;;;;;5049322;28;20045;-73
2021/11/25 13:09:29;;;;;;;25.95;12.88;;;0.40;99.90;;;;;;5049677;28;20133;-72
2021/11/25 13:11:58;;;;;;;28.88;11.90;;;0.40;99.90;;;;;;5048917;28;20139;-74
2021/11/25 13:14:32;;;;;;;28.85;13.88;;;0.40;99.90;;;;;;5049123;28;20503;-72
2021/11/25 13:17:02;;;;;;;25.90;12.40;;;0.50;99.90;;;;;;5048597;28;20045;-72